Sheridan, MI (48884)

5:01 AM EST on February 12, 2016 (GMT -0500)
East Boyer Road, Fenwick | | Change Station
CLOSE
Current Station
Personal Weather Station
Location: Fenwick, MI
Elevation: 810 ft
Nearby Weather Stations

Elev 810 ft 43.17 °N, 85.04 °W | Updated 3 minutes ago

Overcast
Overcast
16.3 °F
Feels Like 6 °F
N
7.8
Wind Variable Wind from SW
Gusts 8.0 mph

Today
High -- | Low -- °F
--% Chance of Precip.
Yesterday
High -- | Low -- °F
Precip. -- in
Pressure 30.06 in
Visibility 10.0 miles
Clouds Overcast 7500 ft
Windchill 6 °F
Dew Point 9 °F
Humidity 73%
Rainfall 0.00 in
Snow Depth Not available.
7:42 AM 6:06 PM
Waxing Crescent, 19% visible
METAR KY70 120957Z AUTO 23008KT 10SM OVC075 M09/M13 A3006 RMK AO2 T10901129
Pressure 30.06 in
Visibility 10.0 miles
Clouds Overcast 7500 ft
Windchill 6 °F
Dew Point 9 °F
Humidity 73%
Rainfall 0.00 in
Snow Depth Not available.
7:42 AM 6:06 PM
Waxing Crescent, 19% visible
METAR KY70 120957Z AUTO 23008KT 10SM OVC075 M09/M13 A3006 RMK AO2 T10901129

10-Day Weather Forecast

Almanac

Astronomy

Feb. 12, 2016 Rise Set
Actual Time
Civil Twilight
Nautical Twilight
Astronomical Twilight
Moon
Length of Visible Light
Length of Day
Tomorrow will be .
, % of the Moon is Illuminated

Today's Extremes

State Highs State Lows

Community

WunderPhotos

Upload Photos

1,892,287 photos uploaded!

WunderBlog® & News

Nearby

Air Quality

  Air Quality AQ Index Pollutant
Not available.

Snow Depth

Station Depth Elevation

Earthquake Activity

City Distance Mag. Time & Date
Minimum magnitude displayed is 2.5.

Coastal Water Temperatures

Place Temperature

Stations

Nearby Weather Stations

Station Location Temp. Windchill Dew Point Humidity Wind Precip. Elev Updated Type
                   

Watches & Warnings

There are currently no watches in effect.